Time;durP1;ratioP1;P1;durP2;ratioP2;P2;SDS_P1;SDS_P2;PMS_P1;PMS_P2;Temp;Humidity;BMP_temperature;BMP_pressure;BME280_temperature;BME280_humidity;BME280_pressure;Samples;Min_cycle;Max_cycle;Signal;HPM_P1;HPM_P2
2023/10/08 00:01:35;;;;;;;105.85;5.05;;;;;;;23.04;47.30;99446.22;7305412;19;130693;-34
2023/10/08 00:04:04;;;;;;;102.47;4.77;;;;;;;23.05;47.20;99452.31;7306647;19;130013;-36
2023/10/08 00:06:30;;;;;;;87.07;4.20;;;;;;;23.02;46.56;99442.13;7306736;19;128787;-39
2023/10/08 00:08:59;;;;;;;70.27;3.63;;;;;;;23.02;46.94;99436.88;7304712;19;129051;-36
2023/10/08 00:11:25;;;;;;;88.78;4.38;;;;;;;22.97;46.92;99441.75;7306396;19;130086;-34
2023/10/08 00:13:55;;;;;;;125.80;6.07;;;;;;;23.07;46.89;99445.13;7306928;19;130925;-36
2023/10/08 00:16:21;;;;;;;103.53;5.20;;;;;;;23.05;46.88;99453.16;7306233;19;128916;-37
2023/10/08 00:18:50;;;;;;;72.33;3.67;;;;;;;23.06;47.14;99448.69;7301973;19;129221;-37
2023/10/08 00:21:19;;;;;;;91.43;5.13;;;;;;;23.08;47.13;99449.38;7304187;19;130363;-37
2023/10/08 00:23:52;;;;;;;105.15;5.10;;;;;;;22.99;47.04;99438.00;7306418;19;130488;-35
2023/10/08 00:26:27;;;;;;;128.75;6.32;;;;;;;23.08;47.60;99462.50;7306910;19;129645;-38
2023/10/08 00:29:06;;;;;;;78.60;3.83;;;;;;;23.09;47.10;99456.25;7303569;19;129073;-38
2023/10/08 00:31:38;;;;;;;57.38;2.97;;;;;;;22.97;47.01;99444.38;7305413;19;131273;-35
2023/10/08 00:34:13;;;;;;;48.90;2.40;;;;;;;23.06;47.05;99451.31;7305139;19;130709;-35
2023/10/08 00:36:43;;;;;;;114.50;6.03;;;;;;;23.04;47.22;99443.63;7305968;19;129750;-35
2023/10/08 00:39:13;;;;;;;139.93;6.60;;;;;;;23.06;47.70;99451.31;7301382;19;129646;-36
2023/10/08 00:41:50;;;;;;;158.63;7.95;;;;;;;23.07;46.90;99458.22;7304309;19;132461;-38
2023/10/08 00:44:21;;;;;;;92.63;4.78;;;;;;;23.07;46.83;99455.63;7307659;19;132810;-37
2023/10/08 00:46:47;;;;;;;96.10;5.15;;;;;;;23.10;47.07;99465.78;7305086;19;129329;-34
2023/10/08 00:49:24;;;;;;;127.70;6.40;;;;;;;23.08;47.02;99457.25;7299860;19;129786;-35
2023/10/08 00:54:28;;;;;;;121.40;5.70;;;;;;;23.07;47.31;99451.16;7303900;19;129546;-38
2023/10/08 00:56:57;;;;;;;;;;;;;;;23.11;46.94;99459.56;7306275;19;130063;-37
2023/10/08 00:59:23;;;;;;;95.97;5.00;;;;;;;23.11;47.21;99467.44;7303322;19;128812;-33
2023/10/08 01:01:53;;;;;;;85.05;4.15;;;;;;;23.13;46.83;99470.72;7305438;19;130518;-38
2023/10/08 01:04:23;;;;;;;131.40;6.35;;;;;;;23.00;47.05;99454.56;7303841;19;131241;-37
2023/10/08 01:06:59;;;;;;;93.45;4.78;;;;;;;22.98;46.61;99451.25;7304893;19;128803;-37
2023/10/08 01:09:37;;;;;;;89.10;4.47;;;;;;;23.12;47.29;99479.59;7303579;19;130025;-35
2023/10/08 01:12:30;;;;;;;71.70;3.70;;;;;;;23.10;46.97;99487.59;7304299;19;129385;-35
2023/10/08 01:15:04;;;;;;;66.72;3.40;;;;;;;23.10;47.21;99473.66;7305732;19;131472;-36
2023/10/08 01:17:32;;;;;;;105.60;5.30;;;;;;;23.11;47.29;99468.25;7301817;19;129490;-36
2023/10/08 01:20:08;;;;;;;56.20;2.88;;;;;;;23.12;46.57;99479.59;7302648;19;129013;-37
2023/10/08 01:22:34;;;;;;;68.63;3.43;;;;;;;23.05;46.57;99468.03;7302943;19;131218;-36
2023/10/08 01:25:01;;;;;;;102.57;4.57;;;;;;;23.11;46.99;99477.91;7304409;19;130369;-37
2023/10/08 01:27:34;;;;;;;64.78;3.60;;;;;;;23.11;46.85;99480.53;7304157;19;129443;-36
2023/10/08 01:30:17;;;;;;;86.95;4.32;;;;;;;23.02;47.02;99457.88;7303802;19;130782;-39
2023/10/08 01:32:44;;;;;;;50.35;2.60;;;;;;;23.14;47.25;99477.59;7302478;19;130242;-36
2023/10/08 01:35:26;;;;;;;88.40;4.20;;;;;;;23.11;46.91;99484.00;7307994;19;130363;-40
2023/10/08 01:37:53;;;;;;;79.60;3.80;;;;;;;23.03;47.28;99490.97;7309158;19;129126;-35
2023/10/08 01:40:18;;;;;;;111.15;5.70;;;;;;;23.12;47.09;99521.53;7311151;19;129828;-36
2023/10/08 01:42:44;;;;;;;66.27;3.30;;;;;;;23.13;46.74;99524.00;7310224;19;130162;-37
2023/10/08 01:45:12;;;;;;;70.43;3.55;;;;;;;23.14;47.02;99522.19;7309725;19;131594;-36
2023/10/08 01:47:38;;;;;;;166.10;8.15;;;;;;;23.15;46.95;99531.72;7307922;19;129056;-37
2023/10/08 01:50:20;;;;;;;103.20;4.73;;;;;;;23.17;46.98;99546.31;7311238;19;129644;-36
2023/10/08 01:52:50;;;;;;;77.35;3.75;;;;;;;23.15;46.97;99553.50;7310398;19;130305;-35
2023/10/08 01:55:19;;;;;;;96.18;4.78;;;;;;;23.15;46.40;99540.41;7308159;19;130575;-38
2023/10/08 01:57:51;;;;;;;64.32;3.15;;;;;;;23.12;46.52;99547.75;7309406;19;129572;-35
2023/10/08 02:00:19;;;;;;;112.22;5.80;;;;;;;23.17;46.66;99558.63;7309338;19;128936;-36
2023/10/08 02:02:46;;;;;;;105.07;4.72;;;;;;;23.13;46.33;99545.00;7304999;19;130526;-38
2023/10/08 02:05:14;;;;;;;76.43;3.75;;;;;;;23.19;46.22;99565.34;7307434;19;129632;-37
2023/10/08 02:07:40;;;;;;;75.93;3.67;;;;;;;23.04;46.36;99547.66;7308809;19;129472;-34
2023/10/08 02:10:07;;;;;;;64.33;3.20;;;;;;;23.16;46.41;99570.06;7310343;19;131954;-32
2023/10/08 02:12:32;;;;;;;100.93;4.60;;;;;;;23.18;46.70;99584.72;7309962;19;131053;-38
2023/10/08 02:14:57;;;;;;;34.00;1.80;;;;;;;23.17;46.36;99593.53;7310506;19;130165;-36
2023/10/08 02:17:23;;;;;;;91.53;4.88;;;;;;;23.19;46.91;99591.59;7308231;19;128727;-36
2023/10/08 02:19:48;;;;;;;76.03;3.70;;;;;;;23.22;46.28;99572.13;7308591;19;129273;-35
2023/10/08 02:22:13;;;;;;;81.82;4.00;;;;;;;23.22;46.46;99559.81;7308983;19;129198;-39
2023/10/08 02:24:39;;;;;;;89.40;4.33;;;;;;;23.24;46.76;99570.16;7309352;19;130691;-36
2023/10/08 02:27:06;;;;;;;65.83;3.23;;;;;;;23.21;46.79;99579.16;7308208;19;130019;-38
2023/10/08 02:29:32;;;;;;;;;;;;;;;23.18;46.43;99573.38;7308008;19;129695;-34
2023/10/08 02:31:58;;;;;;;82.38;3.88;;;;;;;23.17;46.31;99587.47;7310647;19;134780;-36
2023/10/08 02:34:24;;;;;;;;;;;;;;;23.18;46.54;99603.06;7307791;19;130486;-36
2023/10/08 02:36:49;;;;;;;86.22;4.30;;;;;;;23.18;46.80;99613.56;7307162;19;129430;-35
2023/10/08 02:39:21;;;;;;;102.40;4.73;;;;;;;23.20;46.57;99629.16;7306483;19;129518;-39
2023/10/08 02:41:48;;;;;;;79.57;3.95;;;;;;;23.19;46.55;99635.34;7309166;19;131019;-36
2023/10/08 02:44:14;;;;;;;;;;;;;;;23.20;46.92;99647.50;7309908;19;130390;-38
2023/10/08 02:46:51;;;;;;;98.38;4.80;;;;;;;23.21;46.67;99657.84;7307044;19;129742;-37
2023/10/08 02:49:20;;;;;;;91.28;4.68;;;;;;;23.20;46.49;99644.88;7306421;19;129574;-34
2023/10/08 02:51:51;;;;;;;113.43;5.30;;;;;;;23.23;46.80;99670.81;7308312;19;129576;-39
2023/10/08 02:54:18;;;;;;;117.05;5.57;;;;;;;23.22;46.73;99658.69;7309193;19;130556;-35
2023/10/08 02:56:45;;;;;;;108.88;5.45;;;;;;;23.22;46.12;99664.72;7309074;19;130374;-38
2023/10/08 02:59:12;;;;;;;63.28;2.88;;;;;;;23.23;46.94;99681.31;7306573;19;129574;-35
2023/10/08 03:01:39;;;;;;;101.32;4.70;;;;;;;23.24;47.12;99672.44;7304117;19;130213;-39
2023/10/08 03:04:14;;;;;;;132.75;6.70;;;;;;;23.23;46.18;99697.03;7307435;19;130371;-36
2023/10/08 03:06:41;;;;;;;95.45;4.65;;;;;;;23.21;46.74;99694.56;7308475;19;129249;-36
2023/10/08 03:09:07;;;;;;;61.78;3.13;;;;;;;23.23;46.24;99707.53;7306752;19;129135;-36
2023/10/08 03:11:35;;;;;;;;;;;;;;;23.23;46.79;99721.47;7307018;19;131554;-34
2023/10/08 03:14:00;;;;;;;104.00;4.73;;;;;;;23.24;46.36;99738.03;7308522;19;130890;-35
2023/10/08 03:16:33;;;;;;;106.83;5.37;;;;;;;23.14;46.66;99732.00;7308254;19;130880;-37
2023/10/08 03:18:59;;;;;;;67.47;3.28;;;;;;;23.24;46.44;99735.41;7305603;19;129297;-36
2023/10/08 03:24:11;;;;;;;99.65;4.70;;;;;;;23.27;46.76;99761.38;7308149;19;130250;-36
2023/10/08 03:26:38;;;;;;;141.40;6.72;;;;;;;23.27;46.96;99766.63;7306438;19;129047;-35
2023/10/08 03:29:09;;;;;;;108.00;5.15;;;;;;;23.27;46.13;99786.78;7305728;19;129360;-35
2023/10/08 03:34:13;;;;;;;67.93;3.33;;;;;;;23.30;46.58;99797.84;7307480;19;129949;-34
2023/10/08 03:36:44;;;;;;;90.80;4.63;;;;;;;23.17;46.51;99777.13;7304427;19;129511;-37
2023/10/08 03:39:20;;;;;;;122.75;5.57;;;;;;;23.28;46.80;99805.00;7304227;19;129912;-35
2023/10/08 03:41:59;;;;;;;81.57;3.80;;;;;;;23.26;46.84;99812.16;7307801;19;130518;-37
2023/10/08 03:44:25;;;;;;;103.05;5.20;;;;;;;23.29;46.89;99817.16;7308008;19;130520;-37
2023/10/08 03:46:52;;;;;;;81.77;3.97;;;;;;;23.29;46.51;99808.47;7307528;19;128963;-36
2023/10/08 03:51:46;;;;;;;104.15;4.68;;;;;;;23.33;46.73;99829.00;7301220;19;130070;-37
2023/10/08 03:56:45;;;;;;;109.50;5.15;;;;;;;23.32;46.36;99829.97;7303688;19;129517;-36
2023/10/08 03:59:14;;;;;;;50.75;2.50;;;;;;;23.30;46.68;99838.97;7303686;19;129563;-34
2023/10/08 04:01:43;;;;;;;103.20;4.80;;;;;;;23.20;46.37;99826.69;7305031;19;130104;-35
2023/10/08 04:04:14;;;;;;;107.88;5.00;;;;;;;23.32;45.93;99858.81;7306142;19;131731;-39
2023/10/08 04:06:51;;;;;;;179.15;9.15;;;;;;;23.32;46.65;99860.66;7299871;19;130383;-36
2023/10/08 04:11:51;;;;;;;126.05;6.07;;;;;;;23.32;46.03;99843.09;7303714;19;129401;-37
2023/10/08 04:14:27;;;;;;;114.00;5.70;;;;;;;23.33;46.38;99842.13;7293731;19;131873;-35
2023/10/08 04:16:52;;;;;;;188.73;9.38;;;;;;;23.33;46.74;99850.00;7299354;19;131067;-36
2023/10/08 04:19:26;;;;;;;82.90;3.80;;;;;;;23.32;46.95;99844.91;7301186;19;131264;-37
2023/10/08 04:21:55;;;;;;;84.55;4.03;;;;;;;23.34;46.46;99851.66;7304603;19;130074;-38
2023/10/08 04:24:35;;;;;;;79.90;3.88;;;;;;;23.34;46.24;99859.50;7299351;19;130491;-35
2023/10/08 04:27:03;;;;;;;85.65;4.05;;;;;;;23.32;46.94;99858.03;7304390;19;129582;-34
2023/10/08 04:29:32;;;;;;;144.38;6.93;;;;;;;23.35;45.99;99858.56;7301459;19;129688;-36
2023/10/08 04:32:01;;;;;;;117.38;5.43;;;;;;;23.34;46.69;99867.38;7299152;19;130959;-38
2023/10/08 04:34:29;;;;;;;99.18;5.00;;;;;;;23.31;46.26;99856.34;7296107;19;131527;-35
2023/10/08 04:36:57;;;;;;;74.03;3.47;;;;;;;23.34;46.30;99872.63;7304947;19;129353;-38
2023/10/08 04:39:31;;;;;;;118.45;5.85;;;;;;;23.29;46.01;99864.38;7296014;19;129622;-40
2023/10/08 04:41:59;;;;;;;143.00;6.65;;;;;;;23.34;46.23;99864.75;7302116;19;130059;-35
2023/10/08 04:44:25;;;;;;;115.50;5.90;;;;;;;23.35;46.56;99874.31;7304896;19;132549;-36
2023/10/08 04:46:52;;;;;;;115.90;5.57;;;;;;;23.32;46.17;99879.81;7300569;19;129465;-40
2023/10/08 04:49:28;;;;;;;32.42;1.70;;;;;;;23.37;46.18;99887.28;7303089;19;130078;-33
2023/10/08 04:52:08;;;;;;;120.15;5.65;;;;;;;23.35;46.38;99892.69;7300261;19;130139;-37
2023/10/08 04:54:39;;;;;;;196.13;9.90;;;;;;;23.38;46.04;99923.88;7301319;19;131085;-35
2023/10/08 04:57:06;;;;;;;97.28;4.55;;;;;;;23.39;45.77;99930.75;7301702;19;129254;-37
2023/10/08 04:59:32;;;;;;;86.63;4.15;;;;;;;23.37;46.10;99930.06;7302855;19;129205;-35
2023/10/08 05:20:29;;;;;;;48.40;2.30;;;;;;;23.39;46.60;99954.38;7309628;19;130072;-34
2023/10/08 05:23:05;;;;;;;48.72;2.50;;;;;;;23.38;46.28;99960.59;7302905;19;130291;-36
2023/10/08 05:25:53;;;;;;;91.80;4.53;;;;;;;23.39;46.12;99964.88;7308439;19;130642;-36
2023/10/08 05:28:24;;;;;;;;;;;;;;;23.36;46.04;99967.78;7304840;19;129085;-36
2023/10/08 05:31:21;;;;;;;92.75;4.25;;;;;;;23.38;46.50;99973.72;7308517;19;130575;-37
2023/10/08 05:34:14;;;;;;;192.10;9.52;;;;;;;23.40;46.52;99982.28;7305907;19;130609;-35
2023/10/08 05:36:50;;;;;;;177.50;9.30;;;;;;;23.40;45.85;99977.03;7302019;19;130441;-40
2023/10/08 05:41:51;;;;;;;74.63;3.38;;;;;;;23.39;45.93;99983.22;7308318;19;129034;-36
2023/10/08 05:47:06;;;;;;;76.30;3.70;;;;;;;23.41;45.93;99983.94;7308826;19;129531;-37
2023/10/08 06:10:41;;;;;;;79.15;3.60;;;;;;;23.44;45.64;100037.91;7309423;19;129934;-35
2023/10/08 06:13:13;;;;;;;83.43;3.75;;;;;;;23.44;45.68;100036.13;7308030;19;129880;-35
2023/10/08 06:18:14;;;;;;;151.68;7.25;;;;;;;23.41;45.69;100020.66;7307276;19;129728;-34
2023/10/08 06:20:43;;;;;;;74.25;3.63;;;;;;;23.43;46.02;100039.72;7304022;19;129568;-36
2023/10/08 06:23:18;;;;;;;115.20;5.70;;;;;;;23.44;45.59;100044.00;7307597;19;129898;-34
2023/10/08 06:25:44;;;;;;;111.63;5.63;;;;;;;23.44;46.07;100041.38;7306734;19;130309;-37
2023/10/08 06:28:19;;;;;;;208.27;10.05;;;;;;;23.46;45.50;100039.44;7304880;19;131484;-34
2023/10/08 06:30:48;;;;;;;111.22;5.47;;;;;;;23.43;45.76;100044.97;7303868;19;132003;-37
2023/10/08 06:33:14;;;;;;;83.88;3.88;;;;;;;23.45;45.99;100048.28;7310253;19;129280;-37
2023/10/08 06:35:44;;;;;;;111.13;5.43;;;;;;;23.45;45.52;100050.91;7307242;19;130557;-36
2023/10/08 06:38:10;;;;;;;47.75;2.33;;;;;;;23.45;45.74;100058.78;7307495;19;130379;-36
2023/10/08 06:43:14;;;;;;;80.20;4.03;;;;;;;23.44;46.30;100067.63;7305900;19;130731;-36
2023/10/08 06:45:44;;;;;;;117.65;6.00;;;;;;;23.47;45.63;100082.28;7303212;19;130715;-34
2023/10/08 06:48:17;;;;;;;153.32;7.57;;;;;;;23.48;45.72;100087.38;7301086;19;130670;-39
2023/10/08 06:50:44;;;;;;;200.57;10.23;;;;;;;23.48;45.54;100095.25;7298856;19;129809;-33
2023/10/08 06:53:13;;;;;;;125.93;5.75;;;;;;;23.48;45.63;100100.50;7304590;19;130350;-37
2023/10/08 06:55:40;;;;;;;89.97;4.57;;;;;;;23.48;45.78;100121.50;7307063;19;131583;-35
2023/10/08 06:58:07;;;;;;;71.03;3.50;;;;;;;23.51;45.43;100109.88;7304625;19;130336;-36
2023/10/08 07:00:38;;;;;;;110.55;5.40;;;;;;;23.48;46.19;100126.75;7305465;19;129437;-35
2023/10/08 07:03:04;;;;;;;90.22;3.97;;;;;;;23.48;46.30;100121.50;7308627;19;129174;-37
2023/10/08 07:05:36;;;;;;;92.27;4.23;;;;;;;23.49;45.57;100123.13;7307783;19;129257;-38
2023/10/08 07:08:06;;;;;;;60.00;2.80;;;;;;;23.37;46.12;100108.50;7307291;19;129773;-36
2023/10/08 07:10:34;;;;;;;92.82;4.53;;;;;;;23.49;45.82;100127.56;7306912;19;129208;-37
2023/10/08 07:13:02;;;;;;;84.65;3.83;;;;;;;23.46;46.34;100139.16;7307091;19;129332;-33
2023/10/08 07:15:30;;;;;;;124.22;5.80;;;;;;;23.48;46.38;100139.88;7305504;19;130285;-40
2023/10/08 07:17:56;;;;;;;111.50;5.60;;;;;;;23.49;45.88;100148.53;7302027;19;130438;-35
2023/10/08 07:20:22;;;;;;;89.40;4.10;;;;;;;23.50;45.63;100140.56;7305506;19;129311;-39
2023/10/08 07:22:54;;;;;;;67.55;3.22;;;;;;;23.48;45.64;100146.91;7306622;19;129677;-37
2023/10/08 07:25:21;;;;;;;99.15;4.45;;;;;;;23.50;45.95;100158.09;7306131;19;131073;-38
2023/10/08 07:27:47;;;;;;;91.03;4.38;;;;;;;23.51;45.91;100162.38;7306540;19;130758;-38
2023/10/08 07:30:13;;;;;;;61.17;2.77;;;;;;;23.50;45.83;100172.06;7307380;19;130236;-37
2023/10/08 07:32:39;;;;;;;111.37;5.70;;;;;;;23.40;45.90;100160.72;7302617;19;129381;-37
2023/10/08 07:37:47;;;;;;;140.63;6.93;;;;;;;23.50;46.32;100197.47;7306099;19;129255;-37
2023/10/08 07:40:14;;;;;;;67.40;3.13;;;;;;;23.47;45.86;100195.94;7303393;19;129902;-35
2023/10/08 07:42:39;;;;;;;73.88;3.67;;;;;;;23.52;45.35;100198.97;7305988;19;129398;-37
2023/10/08 07:45:05;;;;;;;70.13;3.33;;;;;;;23.50;45.99;100198.31;7305931;19;129114;-36
2023/10/08 07:47:31;;;;;;;123.33;5.40;;;;;;;23.40;45.42;100176.47;7305579;19;130811;-37
2023/10/08 07:49:58;;;;;;;68.17;3.23;;;;;;;23.49;45.84;100201.88;7305570;19;128974;-36
2023/10/08 07:52:24;;;;;;;67.53;3.13;;;;;;;23.49;45.94;100190.53;7305894;19;129212;-32
2023/10/08 07:54:49;;;;;;;79.17;3.60;;;;;;;23.52;46.13;100206.84;7305993;19;129654;-36
2023/10/08 07:57:25;;;;;;;97.87;4.47;;;;;;;23.48;45.42;100191.50;7303885;19;130808;-37
2023/10/08 07:59:54;;;;;;;89.50;4.18;;;;;;;23.52;45.45;100204.22;7302996;19;129385;-38
2023/10/08 08:02:23;;;;;;;102.63;4.95;;;;;;;23.53;45.57;100213.78;7304191;19;130937;-36
2023/10/08 08:04:52;;;;;;;142.23;7.10;;;;;;;23.55;45.83;100222.31;7302170;19;130654;-34
2023/10/08 08:07:21;;;;;;;117.25;5.32;;;;;;;23.53;46.01;100240.03;7302802;19;130695;-36
2023/10/08 08:09:51;;;;;;;107.20;5.32;;;;;;;23.52;45.70;100243.59;7302434;19;129520;-35
2023/10/08 08:12:25;;;;;;;77.95;3.65;;;;;;;23.44;45.93;100225.06;7305866;19;129328;-39
2023/10/08 08:14:51;;;;;;;72.00;3.47;;;;;;;23.41;45.29;100232.38;7303700;19;130704;-34
2023/10/08 08:17:18;;;;;;;51.43;2.53;;;;;;;23.44;45.41;100235.56;7303476;19;130409;-37
2023/10/08 08:19:47;;;;;;;150.00;6.82;;;;;;;23.45;45.83;100229.38;7302645;19;129209;-37
2023/10/08 08:22:15;;;;;;;93.32;4.53;;;;;;;23.57;45.62;100246.63;7304821;19;129294;-36
2023/10/08 08:24:44;;;;;;;117.20;5.93;;;;;;;23.44;45.86;100240.81;7303093;19;130941;-35
2023/10/08 08:27:31;;;;;;;78.30;3.67;;;;;;;23.54;45.37;100257.41;7302283;19;130862;-36
2023/10/08 08:30:09;;;;;;;73.38;3.45;;;;;;;23.53;45.75;100249.69;7298245;19;129032;-36
2023/10/08 08:32:43;;;;;;;74.00;3.47;;;;;;;23.55;45.84;100242.50;7304865;19;129450;-36
2023/10/08 08:35:10;;;;;;;136.18;6.10;;;;;;;23.54;45.52;100241.66;7303668;19;130159;-37
2023/10/08 08:37:38;;;;;;;69.70;3.30;;;;;;;23.55;46.15;100253.00;7303834;19;130337;-34
2023/10/08 08:40:17;;;;;;;80.25;3.75;;;;;;;23.57;45.72;100256.31;7301134;19;129162;-33
2023/10/08 08:42:47;;;;;;;79.88;4.18;;;;;;;23.54;46.00;100248.69;7301979;19;129262;-36
2023/10/08 08:45:18;;;;;;;88.35;4.07;;;;;;;23.53;46.01;100254.94;7303347;19;130313;-35
2023/10/08 08:47:45;;;;;;;194.48;9.52;;;;;;;23.54;46.00;100252.16;7302388;19;130409;-38
2023/10/08 08:50:10;;;;;;;60.38;2.88;;;;;;;23.55;45.69;100269.56;7303490;19;128824;-37
2023/10/08 08:52:37;;;;;;;77.27;3.53;;;;;;;23.58;45.69;100264.06;7301301;19;129876;-36
2023/10/08 08:55:14;;;;;;;125.63;5.80;;;;;;;23.57;46.07;100272.88;7297192;19;131089;-38
2023/10/08 08:57:50;;;;;;;89.70;4.20;;;;;;;23.57;45.57;100267.63;7299944;19;131600;-35
2023/10/08 09:00:17;;;;;;;270.58;14.20;;;;;;;23.54;45.76;100270.53;7297590;19;129253;-38
2023/10/08 09:02:44;;;;;;;109.20;5.35;;;;;;;23.54;45.18;100272.31;7299988;19;130446;-37
2023/10/08 09:05:24;;;;;;;63.72;3.00;;;;;;;23.54;45.74;100267.91;7304064;19;129036;-39
2023/10/08 09:07:58;;;;;;;118.00;5.78;;;;;;;23.55;45.48;100277.44;7300769;19;130434;-35
2023/10/08 09:10:26;;;;;;;59.03;2.92;;;;;;;23.55;45.29;100277.44;7303621;19;129599;-38
2023/10/08 09:12:52;;;;;;;125.82;5.93;;;;;;;23.54;45.28;100278.41;7299381;19;130414;-35
2023/10/08 09:15:18;;;;;;;100.77;4.70;;;;;;;23.54;45.25;100290.69;7304133;19;130252;-36
2023/10/08 09:17:44;;;;;;;106.70;5.47;;;;;;;23.57;45.24;100293.88;7302112;19;130928;-35
2023/10/08 09:20:12;;;;;;;99.77;5.10;;;;;;;23.44;45.87;100277.56;7302465;19;129894;-38
2023/10/08 09:22:37;;;;;;;117.95;5.47;;;;;;;23.58;45.34;100295.56;7301077;19;129457;-37
2023/10/08 09:25:07;;;;;;;93.90;4.47;;;;;;;23.56;45.90;100292.22;7303180;19;130207;-38
2023/10/08 09:27:33;;;;;;;110.00;4.95;;;;;;;23.57;46.19;100291.25;7299723;19;130391;-37
2023/10/08 09:30:07;;;;;;;100.80;4.93;;;;;;;23.57;45.29;100288.63;7294676;19;129558;-32
2023/10/08 09:32:33;;;;;;;135.65;6.30;;;;;;;23.58;45.94;100295.56;7298654;19;130364;-34
2023/10/08 09:34:59;;;;;;;97.30;4.40;;;;;;;23.59;45.53;100307.72;7303279;19;129144;-38
2023/10/08 09:37:24;;;;;;;100.07;4.57;;;;;;;23.58;45.92;100311.31;7301749;19;130313;-34
2023/10/08 09:39:52;;;;;;;140.80;7.17;;;;;;;23.61;45.31;100320.69;7297479;19;128992;-39
2023/10/08 09:42:22;;;;;;;86.80;3.78;;;;;;;23.60;45.08;100319.84;7301946;19;129250;-35
2023/10/08 09:44:47;;;;;;;188.52;9.68;;;;;;;23.60;45.88;100321.66;7298685;19;130923;-36
2023/10/08 09:47:21;;;;;;;45.00;2.17;;;;;;;23.59;45.57;100328.72;7300690;19;131083;-35
2023/10/08 09:49:56;;;;;;;90.82;4.50;;;;;;;23.58;45.83;100327.06;7299138;19;129535;-35
2023/10/08 09:52:39;;;;;;;94.68;4.53;;;;;;;23.60;45.19;100335.59;7301226;19;129417;-37
2023/10/08 09:55:10;;;;;;;120.07;6.07;;;;;;;23.46;45.91;100307.13;7295798;19;134806;-35
2023/10/08 09:57:36;;;;;;;80.75;3.97;;;;;;;23.45;46.06;100315.97;7308404;19;130444;-38
2023/10/08 10:00:05;;;;;;;85.10;4.20;;;;;;;23.54;46.52;100337.94;7306977;19;129410;-38
2023/10/08 10:02:32;;;;;;;93.95;5.32;;;;;;;23.50;46.74;100336.56;7306987;19;129162;-36
2023/10/08 10:04:58;;;;;;;125.28;7.15;;;;;;;23.43;47.15;100338.91;7302602;19;130568;-38
2023/10/08 10:07:25;;;;;;;102.13;5.30;;;;;;;23.45;46.83;100341.38;7305789;19;131511;-39
2023/10/08 10:09:53;;;;;;;137.90;8.35;;;;;;;23.46;47.44;100348.28;7305723;19;129497;-37
2023/10/08 10:12:25;;;;;;;105.18;6.82;;;;;;;23.51;47.88;100353.97;7304028;19;129555;-38
2023/10/08 10:14:55;;;;;;;117.13;8.02;;;;;;;23.52;47.47;100358.25;7307200;19;130010;-37
2023/10/08 10:17:22;;;;;;;97.85;6.60;;;;;;;23.49;47.44;100351.47;7303561;19;131103;-35
2023/10/08 10:19:54;;;;;;;162.23;9.30;;;;;;;23.52;47.02;100364.31;7306033;19;129038;-34
2023/10/08 10:22:34;;;;;;;93.10;5.88;;;;;;;23.36;47.59;100343.00;7309593;19;132967;-35
2023/10/08 10:25:14;;;;;;;77.57;5.00;;;;;;;23.50;47.65;100361.03;7307497;19;131361;-35
2023/10/08 10:28:04;;;;;;;90.40;5.63;;;;;;;23.55;47.40;100358.81;7308497;19;130719;-37
2023/10/08 10:30:29;;;;;;;60.60;4.30;;;;;;;23.54;47.36;100362.41;7308621;19;129865;-35
2023/10/08 10:32:59;;;;;;;120.97;6.93;;;;;;;23.51;47.35;100362.69;7303726;19;129619;-37
2023/10/08 10:35:27;;;;;;;63.72;3.92;;;;;;;23.53;47.13;100357.28;7308581;19;131548;-37
2023/10/08 10:37:55;;;;;;;188.10;9.75;;;;;;;23.55;46.81;100358.81;7303382;19;130326;-35
2023/10/08 10:40:39;;;;;;;120.00;6.97;;;;;;;23.54;46.71;100362.41;7305026;19;129161;-34
2023/10/08 10:43:15;;;;;;;92.07;5.35;;;;;;;23.54;46.62;100362.41;7305505;19;129034;-36
2023/10/08 10:45:46;;;;;;;71.05;4.45;;;;;;;23.53;46.73;100366.00;7306712;19;130308;-35
2023/10/08 10:48:21;;;;;;;85.85;5.10;;;;;;;23.54;47.13;100362.41;7306043;19;132524;-35
2023/10/08 10:53:56;;;;;;;99.85;5.38;;;;;;;23.53;47.31;100360.75;7308644;19;129589;-36
2023/10/08 10:56:29;;;;;;;103.75;5.75;;;;;;;23.53;46.50;100366.00;7307324;19;130993;-37
2023/10/08 10:58:59;;;;;;;128.27;7.05;;;;;;;23.53;46.66;100362.53;7304087;19;131250;-36
2023/10/08 11:01:29;;;;;;;88.38;5.05;;;;;;;23.52;46.59;100364.31;7307545;19;129216;-38
2023/10/08 11:03:57;;;;;;;121.85;6.85;;;;;;;23.56;46.83;100364.91;7306072;19;129232;-35
2023/10/08 11:06:24;;;;;;;83.25;4.65;;;;;;;23.45;46.53;100351.88;7306632;19;130953;-35
2023/10/08 11:08:52;;;;;;;143.35;7.90;;;;;;;23.56;46.90;100360.47;7301416;19;130897;-35
2023/10/08 11:11:18;;;;;;;105.03;5.72;;;;;;;23.57;47.00;100375.25;7308689;19;129193;-34
2023/10/08 11:13:50;;;;;;;76.05;4.63;;;;;;;23.41;46.58;100346.06;7306839;19;129599;-38
2023/10/08 11:16:15;;;;;;;72.97;4.07;;;;;;;23.56;46.61;100365.72;7306409;19;130284;-34
2023/10/08 11:18:50;;;;;;;49.43;3.13;;;;;;;23.53;47.31;100366.00;7302322;19;129988;-37
2023/10/08 11:21:16;;;;;;;96.63;4.93;;;;;;;23.43;46.34;100354.66;7307124;19;130178;-35
2023/10/08 11:23:59;;;;;;;72.63;4.10;;;;;;;23.56;46.75;100365.72;7306413;19;129821;-38
2023/10/08 11:26:32;;;;;;;80.63;4.78;;;;;;;23.57;47.16;100372.63;7304819;19;132017;-37
2023/10/08 11:29:02;;;;;;;115.85;6.68;;;;;;;23.57;47.36;100372.63;7305040;19;130750;-34
2023/10/08 11:31:28;;;;;;;70.97;4.30;;;;;;;23.61;46.97;100367.94;7305545;19;129210;-34
2023/10/08 11:34:00;;;;;;;129.63;6.82;;;;;;;23.61;46.11;100368.78;7305663;19;128915;-36
2023/10/08 11:36:28;;;;;;;118.32;6.82;;;;;;;23.65;46.55;100375.41;7303464;19;130531;-38
2023/10/08 11:39:09;;;;;;;100.40;5.97;;;;;;;23.65;46.31;100370.16;7305202;19;130828;-35
2023/10/08 11:41:49;;;;;;;68.00;4.13;;;;;;;23.69;46.06;100360.22;7308374;19;130020;-34
2023/10/08 11:44:19;;;;;;;94.25;5.18;;;;;;;23.53;46.18;100339.75;7302883;19;130175;-36
2023/10/08 11:46:45;;;;;;;91.93;5.22;;;;;;;23.68;46.00;100358.59;7305452;19;130412;-36
2023/10/08 11:49:17;;;;;;;144.60;7.07;;;;;;;23.64;45.98;100358.00;7305063;19;131088;-36
2023/10/08 11:51:45;;;;;;;81.80;4.50;;;;;;;23.65;46.16;100362.28;7307058;19;130140;-35
2023/10/08 11:54:11;;;;;;;100.75;5.72;;;;;;;23.67;46.20;100357.75;7305980;19;128943;-35
2023/10/08 11:56:38;;;;;;;60.83;3.83;;;;;;;23.65;46.72;100354.41;7303433;19;130392;-35
2023/10/08 11:59:08;;;;;;;149.18;8.10;;;;;;;23.70;46.19;100360.09;7302907;19;130395;-36
2023/10/08 12:01:37;;;;;;;123.32;6.97;;;;;;;23.67;46.54;100360.38;7307628;19;129182;-35
2023/10/08 12:04:03;;;;;;;140.00;7.80;;;;;;;23.67;46.68;100367.44;7304020;19;129285;-38
2023/10/08 12:06:32;;;;;;;76.50;4.22;;;;;;;23.67;46.15;100365.63;7303492;19;131782;-37
2023/10/08 12:09:11;;;;;;;121.32;6.72;;;;;;;23.67;46.61;100372.69;7295112;19;131131;-37
2023/10/08 12:11:37;;;;;;;102.15;6.30;;;;;;;23.63;46.98;100345.88;7303949;19;130181;-35
2023/10/08 12:14:03;;;;;;;167.70;10.00;;;;;;;23.80;48.18;100345.19;7304449;19;131056;-37
2023/10/08 12:16:35;;;;;;;81.80;5.37;;;;;;;23.96;47.85;100353.41;7304926;19;130449;-36
2023/10/08 12:19:01;;;;;;;112.85;6.55;;;;;;;23.95;47.84;100335.13;7297736;19;132983;-36
2023/10/08 12:21:31;;;;;;;85.50;5.55;;;;;;;24.11;47.71;100349.41;7306219;19;129327;-36
2023/10/08 12:24:01;;;;;;;123.63;7.20;;;;;;;24.22;47.10;100357.16;7300758;19;130213;-37
2023/10/08 12:26:26;;;;;;;275.38;15.80;;;;;;;24.28;47.50;100353.97;7301499;19;131154;-37
2023/10/08 12:28:53;;;;;;;112.87;7.40;;;;;;;24.31;48.01;100337.94;7302650;19;129396;-35
2023/10/08 12:31:22;;;;;;;127.03;7.68;;;;;;;24.45;47.26;100342.78;7302324;19;130188;-32
2023/10/08 12:33:49;;;;;;;114.32;6.80;;;;;;;24.52;47.24;100345.66;7300868;19;129438;-34
2023/10/08 12:36:16;;;;;;;;;;;;;;;24.45;47.08;100345.41;7302704;19;130277;-38